Time;durP1;ratioP1;P1;durP2;ratioP2;P2;SDS_P1;SDS_P2;PMS_P1;PMS_P2;Temp;Humidity;BMP_temperature;BMP_pressure;BME280_temperature;BME280_humidity;BME280_pressure;Samples;Min_cycle;Max_cycle;Signal;HPM_P1;HPM_P2
2022/03/15 04:02:17;;;;;;;0.90;0.70;;;10.70;65.10;;;;;;5236041;23;20273;-73
2022/03/15 04:04:45;;;;;;;0.90;0.80;;;10.70;65.50;;;;;;4917169;29;20452;-72
2022/03/15 04:07:12;;;;;;;0.90;0.70;;;10.70;65.40;;;;;;4917218;29;20508;-72
2022/03/15 04:09:39;;;;;;;0.80;0.60;;;10.60;65.10;;;;;;4917153;29;20457;-73
2022/03/15 04:12:07;;;;;;;0.80;0.70;;;10.50;65.30;;;;;;4917201;29;20479;-72
2022/03/15 04:14:35;;;;;;;1.53;0.80;;;10.50;65.60;;;;;;4917160;29;20880;-72
2022/03/15 04:17:02;;;;;;;0.93;0.77;;;10.50;65.70;;;;;;4918255;29;20540;-72
2022/03/15 04:19:31;;;;;;;1.00;0.70;;;10.50;65.50;;;;;;4917030;29;20509;-72
2022/03/15 04:21:58;;;;;;;1.00;0.90;;;10.50;65.80;;;;;;4916622;29;21008;-71
2022/03/15 04:24:25;;;;;;;0.80;0.63;;;10.50;65.50;;;;;;4916652;29;20484;-72
2022/03/15 04:26:52;;;;;;;1.07;0.97;;;10.50;65.00;;;;;;4917195;29;20461;-72
2022/03/15 04:29:19;;;;;;;0.80;0.70;;;10.50;65.10;;;;;;4921632;29;20456;-73
2022/03/15 04:31:46;;;;;;;1.10;0.80;;;10.40;65.60;;;;;;4920731;29;20468;-73
2022/03/15 04:34:12;;;;;;;0.90;0.70;;;10.50;65.60;;;;;;4920768;29;20448;-73
2022/03/15 04:36:41;;;;;;;1.30;1.07;;;10.40;65.40;;;;;;4920777;29;20460;-73
2022/03/15 04:39:08;;;;;;;0.90;0.80;;;10.40;65.40;;;;;;4920458;29;20535;-73
2022/03/15 04:41:35;;;;;;;1.30;0.90;;;10.40;65.60;;;;;;4920742;29;20469;-73
2022/03/15 04:44:01;;;;;;;0.80;0.70;;;10.40;65.80;;;;;;4930746;29;20539;-72
2022/03/15 04:46:28;;;;;;;1.10;0.80;;;10.40;65.70;;;;;;4936202;29;20453;-72
2022/03/15 04:48:56;;;;;;;1.20;0.80;;;10.40;65.20;;;;;;4921335;29;20449;-73
2022/03/15 04:51:24;;;;;;;1.00;0.80;;;10.40;65.20;;;;;;4921118;29;20536;-73
2022/03/15 04:53:52;;;;;;;0.80;0.70;;;10.40;65.50;;;;;;4920812;29;21028;-72
2022/03/15 04:56:19;;;;;;;1.00;0.80;;;10.30;65.30;;;;;;4920735;29;20456;-72
2022/03/15 04:58:46;;;;;;;1.00;0.80;;;10.30;65.50;;;;;;4920387;29;20879;-72
2022/03/15 05:01:13;;;;;;;0.80;0.70;;;10.30;65.40;;;;;;4920373;29;20476;-72
2022/03/15 05:03:39;;;;;;;1.00;0.80;;;10.30;65.30;;;;;;4920540;29;20544;-73
2022/03/15 05:06:06;;;;;;;1.10;0.80;;;10.30;65.40;;;;;;4920315;29;20457;-73
2022/03/15 05:08:33;;;;;;;0.83;0.73;;;10.30;65.60;;;;;;4920428;29;20452;-73
2022/03/15 05:11:06;;;;;;;1.20;1.00;;;10.30;65.50;;;;;;4920260;29;20837;-73
2022/03/15 05:13:35;;;;;;;0.90;0.80;;;10.30;65.40;;;;;;4920195;29;20429;-72
2022/03/15 05:16:01;;;;;;;1.20;0.80;;;10.30;65.30;;;;;;4920177;29;20792;-73
2022/03/15 05:18:28;;;;;;;0.80;0.60;;;10.20;65.60;;;;;;4922633;29;20456;-72
2022/03/15 05:20:55;;;;;;;0.83;0.70;;;10.20;65.70;;;;;;4920952;29;20507;-73
2022/03/15 05:23:21;;;;;;;0.90;0.63;;;10.20;65.80;;;;;;4920127;29;20556;-73
2022/03/15 05:25:48;;;;;;;1.30;0.80;;;10.20;65.80;;;;;;4919894;29;20536;-73
2022/03/15 05:28:16;;;;;;;1.47;0.80;;;10.20;65.90;;;;;;4919815;29;20448;-73
2022/03/15 05:30:43;;;;;;;1.00;0.90;;;10.10;66.00;;;;;;4919690;29;20966;-72
2022/03/15 05:33:10;;;;;;;1.00;0.90;;;10.20;65.90;;;;;;4919607;29;20948;-73
2022/03/15 05:35:36;;;;;;;1.10;1.00;;;10.00;66.00;;;;;;4919665;29;20457;-72
2022/03/15 05:38:04;;;;;;;1.13;0.80;;;9.90;66.30;;;;;;4919665;29;20479;-73
2022/03/15 05:40:31;;;;;;;1.00;0.90;;;9.90;66.40;;;;;;4918941;29;20492;-72
2022/03/15 05:42:58;;;;;;;1.20;1.00;;;10.00;66.30;;;;;;4919156;29;21015;-73
2022/03/15 05:45:26;;;;;;;0.90;0.70;;;10.00;66.30;;;;;;4919596;29;20468;-72
2022/03/15 05:47:53;;;;;;;1.10;0.90;;;9.90;66.30;;;;;;4919504;29;20460;-72
2022/03/15 05:50:20;;;;;;;0.80;0.60;;;9.80;66.50;;;;;;4919486;29;20886;-72
2022/03/15 05:52:47;;;;;;;1.00;0.83;;;9.80;66.40;;;;;;4919324;29;20472;-73
2022/03/15 05:55:13;;;;;;;1.93;0.90;;;9.60;66.80;;;;;;4919442;29;20461;-72
2022/03/15 05:57:40;;;;;;;0.80;0.70;;;9.60;67.10;;;;;;4919045;29;20956;-72
2022/03/15 06:00:09;;;;;;;0.90;0.70;;;9.40;67.60;;;;;;4919009;29;20955;-72
2022/03/15 06:02:38;;;;;;;1.03;0.77;;;9.30;68.10;;;;;;4918974;29;20582;-72
2022/03/15 06:05:05;;;;;;;0.90;0.80;;;9.20;68.30;;;;;;4919327;29;20491;-72
2022/03/15 06:07:32;;;;;;;1.23;0.80;;;9.00;69.30;;;;;;4919342;29;20457;-72
2022/03/15 06:09:59;;;;;;;0.90;0.70;;;8.90;69.20;;;;;;4919700;29;20456;-72
2022/03/15 06:12:26;;;;;;;0.90;0.77;;;9.00;69.60;;;;;;4919032;29;20485;-73
2022/03/15 06:14:53;;;;;;;1.57;0.90;;;9.20;69.10;;;;;;4919011;29;20445;-74
2022/03/15 06:17:21;;;;;;;1.30;0.80;;;9.40;68.80;;;;;;4918981;29;20960;-74
2022/03/15 06:19:49;;;;;;;1.07;0.80;;;9.20;68.60;;;;;;4919125;29;20456;-74
2022/03/15 06:22:16;;;;;;;0.90;0.80;;;9.30;68.50;;;;;;4918901;29;20479;-74
2022/03/15 06:24:42;;;;;;;1.00;0.80;;;9.20;68.50;;;;;;4919220;29;20488;-74
2022/03/15 06:27:09;;;;;;;2.47;0.80;;;9.30;68.70;;;;;;4919017;29;20508;-74
2022/03/15 06:29:36;;;;;;;1.10;0.80;;;9.30;68.50;;;;;;4919350;29;20464;-74
2022/03/15 06:32:03;;;;;;;1.00;0.90;;;9.10;69.00;;;;;;4918642;29;20472;-74
2022/03/15 06:34:30;;;;;;;0.93;0.80;;;9.20;69.40;;;;;;4918961;29;20449;-74
2022/03/15 06:36:59;;;;;;;1.07;0.93;;;9.20;68.90;;;;;;4918472;29;20456;-73
2022/03/15 06:39:25;;;;;;;1.00;0.80;;;9.00;69.50;;;;;;4919044;29;20503;-73
2022/03/15 06:41:52;;;;;;;0.90;0.70;;;9.10;69.60;;;;;;4919089;29;20468;-73
2022/03/15 06:44:19;;;;;;;1.00;0.90;;;9.20;69.60;;;;;;4919004;29;20499;-72
2022/03/15 06:46:46;;;;;;;0.90;0.77;;;9.20;69.30;;;;;;4918628;29;20832;-73
2022/03/15 06:49:13;;;;;;;1.03;0.87;;;9.10;69.30;;;;;;4918550;29;20480;-74
2022/03/15 06:51:40;;;;;;;0.90;0.80;;;9.10;69.70;;;;;;4918053;29;20483;-74
2022/03/15 06:54:08;;;;;;;1.00;0.77;;;8.90;69.80;;;;;;4919084;29;20893;-73
2022/03/15 06:56:37;;;;;;;1.40;1.30;;;8.90;70.60;;;;;;4918464;29;20448;-74
2022/03/15 06:59:04;;;;;;;0.90;0.80;;;8.80;70.70;;;;;;4917962;29;20936;-73
2022/03/15 07:01:31;;;;;;;0.90;0.80;;;8.70;71.20;;;;;;4919743;29;20500;-72
2022/03/15 07:03:57;;;;;;;1.00;0.83;;;8.80;70.80;;;;;;4917987;29;20492;-73
2022/03/15 07:06:24;;;;;;;1.13;0.97;;;8.50;71.50;;;;;;4918032;29;20448;-72
2022/03/15 07:08:51;;;;;;;0.80;0.80;;;8.50;71.90;;;;;;4917634;29;20965;-72
2022/03/15 07:11:19;;;;;;;1.00;0.80;;;8.60;72.20;;;;;;4917946;29;20477;-71
2022/03/15 07:13:46;;;;;;;1.13;0.90;;;8.70;71.40;;;;;;4917895;29;20480;-71
2022/03/15 07:16:12;;;;;;;1.00;0.80;;;8.70;71.20;;;;;;4917559;29;20942;-72
2022/03/15 07:18:39;;;;;;;0.93;0.83;;;8.80;70.90;;;;;;4917798;29;20508;-71
2022/03/15 07:21:06;;;;;;;1.00;0.80;;;8.80;70.80;;;;;;4917703;29;20528;-72
2022/03/15 07:23:32;;;;;;;0.90;0.70;;;9.00;70.60;;;;;;4917797;29;20481;-72
2022/03/15 07:25:59;;;;;;;1.00;0.90;;;9.10;70.40;;;;;;4917553;29;20459;-72
2022/03/15 07:28:27;;;;;;;0.80;0.70;;;9.40;70.10;;;;;;4917752;29;20494;-72
2022/03/15 07:30:54;;;;;;;1.00;0.90;;;9.60;69.50;;;;;;4917624;29;20527;-73
2022/03/15 07:33:20;;;;;;;0.90;0.70;;;9.80;68.60;;;;;;4917646;29;20457;-71
2022/03/15 07:35:47;;;;;;;1.00;0.90;;;9.90;67.70;;;;;;4917744;29;20480;-72
2022/03/15 07:38:17;;;;;;;0.83;0.73;;;9.90;67.60;;;;;;4917247;29;20953;-71
2022/03/15 07:40:43;;;;;;;1.03;0.93;;;10.00;67.90;;;;;;4917170;29;20833;-71
2022/03/15 07:43:10;;;;;;;0.90;0.70;;;9.80;67.50;;;;;;4917537;29;20453;-72
2022/03/15 07:45:38;;;;;;;2.03;0.90;;;9.80;68.20;;;;;;4917533;29;20453;-71
2022/03/15 07:48:06;;;;;;;1.10;0.90;;;10.00;67.70;;;;;;4917434;29;20453;-72
2022/03/15 07:50:33;;;;;;;1.20;1.10;;;10.10;67.70;;;;;;4917356;29;20457;-73
2022/03/15 07:53:00;;;;;;;1.53;0.90;;;10.30;67.30;;;;;;4917674;29;20508;-72
2022/03/15 07:55:26;;;;;;;0.90;0.80;;;10.30;66.80;;;;;;4917484;29;20873;-72
2022/03/15 07:57:53;;;;;;;1.00;0.90;;;10.30;67.10;;;;;;4917614;29;20449;-71
2022/03/15 08:00:20;;;;;;;1.07;0.80;;;10.50;66.50;;;;;;4917856;29;20512;-71
2022/03/15 08:02:48;;;;;;;0.80;0.70;;;10.60;65.80;;;;;;4917755;29;20516;-72
2022/03/15 08:05:15;;;;;;;1.10;0.80;;;10.70;65.10;;;;;;4917969;29;20492;-73
2022/03/15 08:07:41;;;;;;;1.00;0.90;;;10.70;65.30;;;;;;4917259;29;20512;-72
2022/03/15 08:10:10;;;;;;;0.90;0.70;;;10.60;65.00;;;;;;4917184;29;20491;-72
2022/03/15 08:12:37;;;;;;;0.90;0.70;;;10.60;65.30;;;;;;4917161;29;20879;-71
2022/03/15 08:15:04;;;;;;;1.00;0.80;;;10.40;65.70;;;;;;4917088;29;20453;-73
2022/03/15 08:17:31;;;;;;;0.90;0.80;;;10.40;65.60;;;;;;4917087;29;20457;-72
2022/03/15 08:20:00;;;;;;;1.20;0.87;;;10.50;65.50;;;;;;4916923;29;20524;-73
2022/03/15 08:22:28;;;;;;;0.80;0.70;;;10.20;66.40;;;;;;4917008;29;20480;-72
2022/03/15 08:24:55;;;;;;;1.37;0.90;;;10.40;66.40;;;;;;4917027;29;20484;-73
2022/03/15 08:27:22;;;;;;;0.90;0.70;;;10.50;65.70;;;;;;4917055;29;20452;-71
2022/03/15 08:29:49;;;;;;;0.97;0.87;;;10.60;65.10;;;;;;4916704;29;21025;-73
2022/03/15 08:32:16;;;;;;;0.90;0.70;;;10.60;65.30;;;;;;4916954;29;20533;-72
2022/03/15 08:34:42;;;;;;;0.90;0.70;;;10.80;66.20;;;;;;4917055;29;20488;-72
2022/03/15 08:37:12;;;;;;;0.80;0.60;;;11.00;65.20;;;;;;4917052;29;20453;-72
2022/03/15 08:39:39;;;;;;;1.00;0.60;;;10.90;64.80;;;;;;4916765;29;20461;-73
2022/03/15 08:42:08;;;;;;;0.90;0.70;;;10.80;65.50;;;;;;4916827;29;20547;-73
2022/03/15 08:44:35;;;;;;;0.80;0.70;;;10.80;66.00;;;;;;4916795;29;20871;-72
2022/03/15 08:47:02;;;;;;;0.90;0.70;;;10.80;65.80;;;;;;4916847;29;20449;-72
2022/03/15 08:49:28;;;;;;;1.00;0.70;;;10.90;66.30;;;;;;4916848;29;20457;-71
2022/03/15 08:51:55;;;;;;;1.03;0.73;;;10.70;66.90;;;;;;4916877;29;20488;-72
2022/03/15 08:54:24;;;;;;;0.80;0.70;;;10.70;68.20;;;;;;4917028;29;20480;-72
2022/03/15 08:56:51;;;;;;;1.50;0.70;;;10.70;68.60;;;;;;4916979;29;20512;-72
2022/03/15 08:59:20;;;;;;;1.00;0.60;;;10.50;69.60;;;;;;4916947;29;20453;-70
2022/03/15 09:01:48;;;;;;;0.90;0.60;;;10.40;70.40;;;;;;4916479;29;20499;-72
2022/03/15 09:04:15;;;;;;;1.20;0.60;;;10.30;71.40;;;;;;4916623;29;20488;-72
2022/03/15 09:06:42;;;;;;;0.90;0.70;;;10.40;72.20;;;;;;4916974;29;20467;-72
2022/03/15 09:09:09;;;;;;;0.80;0.70;;;10.50;72.20;;;;;;4917039;29;20543;-73
2022/03/15 09:11:37;;;;;;;0.83;0.70;;;10.30;73.20;;;;;;4916566;29;20564;-72
2022/03/15 09:14:04;;;;;;;0.90;0.70;;;10.20;74.60;;;;;;4917412;29;20456;-72
2022/03/15 09:16:31;;;;;;;0.90;0.73;;;10.10;75.60;;;;;;4920122;29;20448;-72
2022/03/15 09:18:58;;;;;;;0.80;0.70;;;10.00;76.90;;;;;;4920260;29;20512;-73
2022/03/15 09:21:25;;;;;;;0.80;0.60;;;10.00;77.80;;;;;;4920240;29;20568;-72
2022/03/15 09:23:51;;;;;;;0.80;0.70;;;10.10;78.40;;;;;;4919775;29;20452;-72
2022/03/15 09:26:18;;;;;;;0.90;0.80;;;10.00;78.20;;;;;;4920167;29;20444;-71
2022/03/15 09:28:46;;;;;;;0.90;0.67;;;10.20;78.90;;;;;;4919970;29;20453;-73
2022/03/15 09:31:13;;;;;;;0.80;0.70;;;10.20;78.60;;;;;;4919989;29;20940;-73
2022/03/15 09:33:43;;;;;;;1.10;0.60;;;10.40;79.50;;;;;;4919947;29;20877;-73
2022/03/15 09:36:09;;;;;;;0.80;0.70;;;10.50;79.10;;;;;;4919934;29;20467;-73
2022/03/15 09:38:36;;;;;;;0.90;0.60;;;10.70;79.60;;;;;;4919883;29;20879;-72
2022/03/15 09:41:04;;;;;;;0.80;0.70;;;10.90;78.40;;;;;;4919840;29;20533;-73
2022/03/15 09:43:36;;;;;;;0.80;0.70;;;10.80;78.40;;;;;;4919517;29;20836;-73
2022/03/15 09:46:05;;;;;;;1.00;0.67;;;11.00;78.40;;;;;;4921064;29;20511;-72
2022/03/15 09:48:34;;;;;;;0.90;0.70;;;11.20;77.80;;;;;;4919620;29;20501;-72
2022/03/15 09:51:04;;;;;;;0.90;0.60;;;11.30;77.30;;;;;;4919374;29;20921;-73
2022/03/15 09:53:33;;;;;;;0.83;0.70;;;11.10;76.90;;;;;;4919678;29;20444;-72
2022/03/15 09:56:00;;;;;;;0.90;0.60;;;11.00;77.10;;;;;;4919519;29;20855;-73
2022/03/15 09:58:27;;;;;;;0.80;0.60;;;11.10;77.70;;;;;;4919435;29;20512;-72
2022/03/15 10:00:55;;;;;;;1.17;0.73;;;11.20;77.40;;;;;;4919015;29;20480;-72
2022/03/15 10:03:23;;;;;;;0.80;0.70;;;11.00;78.10;;;;;;4919770;29;20441;-73
2022/03/15 10:05:51;;;;;;;1.10;0.87;;;11.20;78.80;;;;;;4919389;29;20487;-73
2022/03/15 10:08:18;;;;;;;0.87;0.70;;;11.30;78.20;;;;;;4919530;29;20533;-73
2022/03/15 10:10:48;;;;;;;0.97;0.87;;;11.40;77.70;;;;;;4918886;29;20480;-73
2022/03/15 10:13:15;;;;;;;0.80;0.60;;;11.40;77.70;;;;;;4919203;29;20457;-73
2022/03/15 10:15:51;;;;;;;1.13;0.70;;;11.60;77.50;;;;;;4919906;29;20500;-73
2022/03/15 10:18:18;;;;;;;1.27;0.80;;;11.80;77.10;;;;;;4918940;29;20437;-72
2022/03/15 10:20:47;;;;;;;0.90;0.70;;;11.90;76.70;;;;;;4918912;29;20464;-73
2022/03/15 10:23:16;;;;;;;1.00;0.80;;;11.80;76.50;;;;;;4919470;29;20456;-73
2022/03/15 10:25:45;;;;;;;0.90;0.70;;;11.90;76.20;;;;;;4918454;29;20579;-73
2022/03/15 10:28:13;;;;;;;0.90;0.70;;;12.10;75.70;;;;;;4918918;29;20475;-73
2022/03/15 10:30:41;;;;;;;0.90;0.70;;;12.20;75.60;;;;;;4918413;29;20804;-74
2022/03/15 10:33:08;;;;;;;0.80;0.60;;;11.80;75.40;;;;;;4918683;29;20456;-73
2022/03/15 10:35:37;;;;;;;0.90;0.80;;;11.70;76.40;;;;;;4918274;29;20862;-72
2022/03/15 10:38:07;;;;;;;0.90;0.77;;;11.80;76.70;;;;;;4918291;29;20945;-74
2022/03/15 10:40:35;;;;;;;1.00;0.73;;;11.90;76.80;;;;;;4918502;29;20956;-74
2022/03/15 10:43:07;;;;;;;0.80;0.67;;;12.00;76.50;;;;;;4918576;29;20605;-74
2022/03/15 10:45:35;;;;;;;0.80;0.70;;;12.20;76.20;;;;;;4918544;29;20555;-73
2022/03/15 10:48:03;;;;;;;0.80;0.60;;;12.30;75.90;;;;;;4918224;29;20887;-74
2022/03/15 10:50:33;;;;;;;0.90;0.70;;;12.30;75.20;;;;;;4918370;29;20512;-74
2022/03/15 10:53:08;;;;;;;0.90;0.60;;;12.40;74.80;;;;;;4918441;29;20544;-73
2022/03/15 10:55:35;;;;;;;0.90;0.70;;;12.50;75.00;;;;;;4918721;29;20803;-73
2022/03/15 10:58:05;;;;;;;0.80;0.60;;;12.50;75.20;;;;;;4918490;29;20480;-73
2022/03/15 11:00:36;;;;;;;0.80;0.80;;;12.50;74.50;;;;;;4918223;29;20456;-74
2022/03/15 11:03:07;;;;;;;0.80;0.60;;;12.50;75.20;;;;;;4918300;29;20468;-73
2022/03/15 11:05:38;;;;;;;1.00;0.70;;;12.60;75.00;;;;;;4917800;29;21016;-73
2022/03/15 11:08:06;;;;;;;0.80;0.60;;;12.60;74.90;;;;;;4918917;29;20876;-72
2022/03/15 11:10:34;;;;;;;0.90;0.80;;;12.40;75.40;;;;;;4917936;29;20460;-73
2022/03/15 11:13:06;;;;;;;0.80;0.67;;;12.10;76.30;;;;;;4918008;29;20466;-73
2022/03/15 11:15:36;;;;;;;1.00;0.70;;;12.20;76.20;;;;;;4917646;29;20910;-73
2022/03/15 11:18:05;;;;;;;0.90;0.77;;;12.20;76.70;;;;;;4917889;29;20552;-73
2022/03/15 11:20:35;;;;;;;0.93;0.80;;;12.00;77.70;;;;;;4917521;29;20878;-72
2022/03/15 11:23:08;;;;;;;0.83;0.67;;;12.00;78.00;;;;;;4917865;29;20521;-74
2022/03/15 11:25:39;;;;;;;0.90;0.70;;;11.80;78.40;;;;;;4917694;29;20492;-73
2022/03/15 11:28:08;;;;;;;1.03;0.77;;;11.80;79.40;;;;;;4917786;29;20447;-74
2022/03/15 11:30:35;;;;;;;1.00;0.70;;;11.50;79.80;;;;;;4917718;29;20552;-74
2022/03/15 11:33:04;;;;;;;0.80;0.60;;;11.50;80.70;;;;;;4917687;29;20616;-74
2022/03/15 11:35:31;;;;;;;1.00;0.70;;;11.70;80.30;;;;;;4917647;29;20460;-74
2022/03/15 11:38:00;;;;;;;0.90;0.70;;;11.80;80.00;;;;;;4916736;29;20876;-72
2022/03/15 11:40:27;;;;;;;0.93;0.80;;;11.70;79.20;;;;;;4917656;29;20453;-75
2022/03/15 11:43:15;;;;;;;0.90;0.70;;;11.80;79.60;;;;;;4917621;29;20461;-74
2022/03/15 11:45:45;;;;;;;0.80;0.70;;;11.70;79.20;;;;;;4917604;29;20524;-74
2022/03/15 11:48:17;;;;;;;0.93;0.83;;;11.60;79.80;;;;;;4917631;29;20441;-74
2022/03/15 11:50:58;;;;;;;0.90;0.73;;;11.70;79.80;;;;;;4917936;29;22587;-74
2022/03/15 11:53:37;;;;;;;1.00;0.80;;;11.70;79.90;;;;;;4917485;29;20520;-74
2022/03/15 11:56:12;;;;;;;0.80;0.70;;;11.80;80.40;;;;;;4917604;29;20524;-74
2022/03/15 11:58:52;;;;;;;1.00;0.90;;;11.70;80.20;;;;;;4917389;29;20440;-74
2022/03/15 12:01:19;;;;;;;0.97;0.87;;;11.70;80.70;;;;;;4918068;29;20551;-74
2022/03/15 12:03:47;;;;;;;1.00;0.90;;;11.40;81.30;;;;;;4919097;29;20472;-74
2022/03/15 12:06:18;;;;;;;0.90;0.80;;;11.50;81.70;;;;;;4919010;29;20531;-74
2022/03/15 12:08:52;;;;;;;0.80;0.70;;;11.40;81.20;;;;;;4921048;29;20457;-75
2022/03/15 12:11:28;;;;;;;1.10;0.90;;;11.20;82.20;;;;;;4919686;29;20472;-73
2022/03/15 12:14:03;;;;;;;0.90;0.80;;;11.20;82.40;;;;;;4925106;29;20463;-74
2022/03/15 12:16:35;;;;;;;1.00;0.90;;;11.10;83.00;;;;;;4934554;29;20436;-73
2022/03/15 12:19:06;;;;;;;1.00;0.80;;;10.70;84.40;;;;;;4935521;29;20481;-73
2022/03/15 12:21:33;;;;;;;1.00;0.90;;;10.60;85.30;;;;;;4919785;29;20469;-74
2022/03/15 12:24:00;;;;;;;0.90;0.80;;;10.50;86.30;;;;;;4917477;29;20456;-74
2022/03/15 12:26:29;;;;;;;0.90;0.80;;;10.60;85.90;;;;;;4918482;29;20489;-74
2022/03/15 12:29:00;;;;;;;1.20;1.10;;;10.70;86.00;;;;;;4918037;29;20472;-74
2022/03/15 12:31:39;;;;;;;1.17;0.93;;;10.80;85.30;;;;;;4917851;29;20560;-73
2022/03/15 12:34:08;;;;;;;1.47;0.87;;;10.90;85.40;;;;;;4917777;29;20441;-73
2022/03/15 12:36:47;;;;;;;0.90;0.73;;;10.80;85.00;;;;;;4917515;29;20453;-73
2022/03/15 12:39:15;;;;;;;0.93;0.83;;;11.00;84.30;;;;;;4917420;29;20441;-74
2022/03/15 12:41:42;;;;;;;1.10;0.80;;;11.20;84.20;;;;;;4917272;29;20524;-74
2022/03/15 12:44:11;;;;;;;0.90;0.70;;;11.10;83.70;;;;;;4917135;29;20516;-74
2022/03/15 12:46:39;;;;;;;0.93;0.70;;;10.90;83.80;;;;;;4917021;29;20497;-73
2022/03/15 12:49:07;;;;;;;1.00;0.90;;;10.70;85.20;;;;;;4919571;29;20513;-74
2022/03/15 12:51:41;;;;;;;1.00;0.80;;;11.00;84.70;;;;;;4920620;29;21000;-74
2022/03/15 12:54:11;;;;;;;1.00;0.80;;;11.20;83.40;;;;;;4920984;29;20444;-74
2022/03/15 12:56:43;;;;;;;1.30;1.20;;;11.40;83.10;;;;;;4920523;29;20942;-74
2022/03/15 12:59:19;;;;;;;0.87;0.80;;;11.60;82.80;;;;;;4920665;29;20436;-74
2022/03/15 13:01:47;;;;;;;0.97;0.87;;;11.50;81.80;;;;;;4920204;29;20499;-74
2022/03/15 13:04:15;;;;;;;0.90;0.80;;;11.40;82.80;;;;;;4920159;29;21008;-75
2022/03/15 13:06:42;;;;;;;0.90;0.80;;;11.60;82.30;;;;;;4920356;29;20531;-74
2022/03/15 13:09:08;;;;;;;1.20;0.90;;;11.60;82.30;;;;;;4920364;29;20524;-74
2022/03/15 13:11:45;;;;;;;0.80;0.60;;;11.80;81.80;;;;;;4920233;29;20539;-74
2022/03/15 13:14:12;;;;;;;0.80;0.67;;;11.70;81.30;;;;;;4921150;29;20447;-74
2022/03/15 13:16:45;;;;;;;0.90;0.70;;;11.70;81.50;;;;;;4920210;29;20860;-71
2022/03/15 13:19:12;;;;;;;0.80;0.70;;;11.80;82.00;;;;;;4920100;29;20931;-74
2022/03/15 13:21:40;;;;;;;0.80;0.67;;;11.90;81.60;;;;;;4920076;29;20567;-74
2022/03/15 13:24:11;;;;;;;0.80;0.70;;;11.60;82.00;;;;;;4920813;29;20798;-74
2022/03/15 13:26:39;;;;;;;0.90;0.77;;;11.50;83.00;;;;;;4920083;29;20500;-74
2022/03/15 13:29:08;;;;;;;0.83;0.73;;;11.50;83.50;;;;;;4920131;29;20459;-74
2022/03/15 13:31:36;;;;;;;1.20;0.70;;;11.50;82.60;;;;;;4919650;29;20851;-74
2022/03/15 13:34:04;;;;;;;0.80;0.60;;;11.50;83.40;;;;;;4920304;29;20539;-74
2022/03/15 13:36:33;;;;;;;1.53;0.67;;;11.70;82.90;;;;;;4920115;29;20480;-74
2022/03/15 13:39:05;;;;;;;0.90;0.70;;;11.80;82.70;;;;;;4919980;29;20457;-75
2022/03/15 13:41:39;;;;;;;0.80;0.70;;;11.90;82.10;;;;;;4919842;29;20491;-74
2022/03/15 13:44:11;;;;;;;0.80;0.60;;;11.90;81.70;;;;;;4919947;29;20439;-74
2022/03/15 13:46:39;;;;;;;0.80;0.63;;;11.80;81.60;;;;;;4919751;29;20479;-74
2022/03/15 13:49:08;;;;;;;1.00;0.90;;;11.50;82.40;;;;;;4919700;29;20995;-73
2022/03/15 13:51:36;;;;;;;0.87;0.77;;;11.50;83.40;;;;;;4919253;29;20984;-73
2022/03/15 13:54:07;;;;;;;1.77;0.70;;;11.60;83.30;;;;;;4919811;29;20486;-74
2022/03/15 13:56:40;;;;;;;0.90;0.70;;;11.50;83.30;;;;;;4919795;29;20511;-73
2022/03/15 13:59:09;;;;;;;0.80;0.77;;;11.50;83.60;;;;;;4919308;29;20440;-74
2022/03/15 14:01:39;;;;;;;0.80;0.70;;;11.40;83.30;;;;;;4918527;29;20492;-74
2022/03/15 14:04:10;;;;;;;0.80;0.70;;;11.60;83.60;;;;;;4919585;29;20488;-74
2022/03/15 14:06:39;;;;;;;0.87;0.70;;;11.80;83.10;;;;;;4919607;29;20571;-74
2022/03/15 14:09:08;;;;;;;0.90;0.70;;;11.80;82.00;;;;;;4919384;29;20892;-74
2022/03/15 14:11:44;;;;;;;0.80;0.70;;;11.60;82.30;;;;;;4919719;29;20891;-73
2022/03/15 14:14:11;;;;;;;1.00;0.90;;;11.50;82.20;;;;;;4919832;29;20485;-72
2022/03/15 14:16:43;;;;;;;1.00;0.90;;;11.40;82.50;;;;;;4919214;29;20951;-74
2022/03/15 14:19:14;;;;;;;0.90;0.80;;;11.20;84.00;;;;;;4919168;29;20436;-72
2022/03/15 14:21:42;;;;;;;0.80;0.80;;;11.30;84.00;;;;;;4918935;29;21010;-73
2022/03/15 14:24:18;;;;;;;1.10;0.90;;;11.40;83.30;;;;;;4918751;29;20437;-74
2022/03/15 14:26:48;;;;;;;1.00;0.90;;;11.50;83.00;;;;;;4919071;29;20507;-74
2022/03/15 14:29:19;;;;;;;0.80;0.70;;;11.60;83.00;;;;;;4918940;29;20448;-74
2022/03/15 14:31:56;;;;;;;1.20;1.10;;;11.90;82.60;;;;;;4919016;29;20481;-74
2022/03/15 14:34:25;;;;;;;1.03;0.93;;;12.10;81.20;;;;;;4919341;29;20497;-74
2022/03/15 14:37:05;;;;;;;0.90;0.80;;;12.20;81.10;;;;;;4919037;29;20452;-74
2022/03/15 14:39:35;;;;;;;0.90;0.80;;;12.30;81.30;;;;;;4919600;29;20496;-73
2022/03/15 14:42:05;;;;;;;0.80;0.67;;;12.20;81.10;;;;;;4919360;29;20488;-74
2022/03/15 14:44:35;;;;;;;0.80;0.60;;;12.30;80.60;;;;;;4919267;29;20460;-73
2022/03/15 14:47:02;;;;;;;1.53;0.70;;;12.10;81.40;;;;;;4919127;29;21072;-74
2022/03/15 14:49:31;;;;;;;0.83;0.67;;;12.10;81.10;;;;;;4919311;29;20921;-73
2022/03/15 14:52:00;;;;;;;0.90;0.73;;;12.10;81.50;;;;;;4918987;29;20481;-74
2022/03/15 14:54:28;;;;;;;0.90;0.80;;;12.30;81.50;;;;;;4918811;29;20457;-73
2022/03/15 14:57:01;;;;;;;1.00;0.70;;;12.30;80.60;;;;;;4918612;29;20449;-74
2022/03/15 14:59:30;;;;;;;0.90;0.70;;;12.20;79.50;;;;;;4919223;29;20465;-74
2022/03/15 15:01:57;;;;;;;1.63;0.70;;;12.40;79.50;;;;;;4917973;29;20499;-74
2022/03/15 15:04:25;;;;;;;0.80;0.60;;;12.60;78.90;;;;;;4918162;29;20449;-74
2022/03/15 15:06:52;;;;;;;0.90;0.70;;;12.60;78.90;;;;;;4918037;29;20484;-73
2022/03/15 15:09:19;;;;;;;0.80;0.60;;;12.80;77.90;;;;;;4918064;29;20448;-72
2022/03/15 15:11:46;;;;;;;0.90;0.70;;;12.90;77.80;;;;;;4917042;29;20481;-74
2022/03/15 15:14:13;;;;;;;0.80;0.70;;;13.00;77.10;;;;;;4918003;29;20452;-74
2022/03/15 15:16:40;;;;;;;1.77;0.70;;;13.10;76.80;;;;;;4918101;29;20820;-73
2022/03/15 15:19:07;;;;;;;1.20;0.70;;;12.90;75.40;;;;;;4917849;29;20457;-74
2022/03/15 15:21:34;;;;;;;0.90;0.77;;;12.80;75.30;;;;;;4917834;29;20481;-74
2022/03/15 15:24:02;;;;;;;0.80;0.60;;;12.60;75.40;;;;;;4917917;29;20456;-73
2022/03/15 15:26:29;;;;;;;0.90;0.60;;;12.60;75.30;;;;;;4918373;29;20537;-74
2022/03/15 15:28:58;;;;;;;0.90;0.70;;;12.70;74.90;;;;;;4918144;29;20468;-74
2022/03/15 15:31:25;;;;;;;1.10;0.80;;;12.70;74.90;;;;;;4918397;29;20487;-73
2022/03/15 15:33:52;;;;;;;2.07;0.77;;;12.70;74.50;;;;;;4918187;29;21016;-73
2022/03/15 15:36:20;;;;;;;1.10;0.70;;;12.80;74.60;;;;;;4918108;29;20452;-73
2022/03/15 15:38:47;;;;;;;1.20;0.87;;;12.50;74.90;;;;;;4917932;29;20959;-73
2022/03/15 15:41:19;;;;;;;2.57;0.93;;;12.50;75.30;;;;;;4918042;29;20472;-73
2022/03/15 15:43:47;;;;;;;1.30;0.70;;;12.30;75.50;;;;;;4918105;29;20441;-73
2022/03/15 15:46:18;;;;;;;1.10;0.70;;;12.20;76.00;;;;;;4917172;29;21026;-73
2022/03/15 15:48:47;;;;;;;0.80;0.70;;;12.40;75.70;;;;;;4917671;29;20447;-72
2022/03/15 15:51:15;;;;;;;0.80;0.70;;;12.40;75.30;;;;;;4917553;29;20493;-74
2022/03/15 15:53:43;;;;;;;1.57;0.80;;;12.50;75.20;;;;;;4917204;29;20972;-73
2022/03/15 15:56:10;;;;;;;1.10;0.80;;;12.60;75.10;;;;;;4917530;29;20448;-73
2022/03/15 15:58:38;;;;;;;1.03;0.80;;;12.50;75.40;;;;;;4917434;29;20457;-73
2022/03/15 16:01:14;;;;;;;1.37;0.80;;;12.50;75.50;;;;;;4917076;29;20496;-74
2022/03/15 16:03:41;;;;;;;2.40;0.80;;;12.70;75.30;;;;;;4917478;29;20441;-74
2022/03/15 16:06:07;;;;;;;1.00;0.77;;;12.90;75.10;;;;;;4916870;29;20937;-73
2022/03/15 16:08:35;;;;;;;2.43;0.80;;;13.10;74.60;;;;;;4916848;29;20936;-73
2022/03/15 16:11:03;;;;;;;0.90;0.60;;;13.00;74.10;;;;;;4917089;29;20824;-74
2022/03/15 16:13:30;;;;;;;0.90;0.70;;;13.10;74.30;;;;;;4917243;29;20839;-73
2022/03/15 16:15:58;;;;;;;0.90;0.63;;;12.80;74.00;;;;;;4918408;29;20545;-73
2022/03/15 16:18:24;;;;;;;1.73;0.90;;;12.90;74.40;;;;;;4917175;29;20471;-73
2022/03/15 16:20:51;;;;;;;0.90;0.70;;;13.00;74.40;;;;;;4917316;29;20477;-74
2022/03/15 16:23:18;;;;;;;0.90;0.70;;;13.10;74.00;;;;;;4918445;29;20455;-72
2022/03/15 16:25:45;;;;;;;1.40;0.90;;;13.30;74.00;;;;;;4921123;29;20448;-73
2022/03/15 16:28:12;;;;;;;1.10;0.70;;;13.40;73.80;;;;;;4920985;29;20854;-74
2022/03/15 16:30:39;;;;;;;1.07;0.90;;;13.40;73.30;;;;;;4921057;29;20456;-74
2022/03/15 16:33:07;;;;;;;0.90;0.70;;;13.50;73.00;;;;;;4921700;29;20480;-74
2022/03/15 16:35:33;;;;;;;1.00;0.90;;;13.60;72.90;;;;;;4920841;29;20507;-73
2022/03/15 16:38:00;;;;;;;0.90;0.80;;;13.60;72.70;;;;;;4920926;29;20500;-73
2022/03/15 16:40:27;;;;;;;0.83;0.80;;;13.70;72.80;;;;;;4920469;29;20945;-73
2022/03/15 16:42:56;;;;;;;2.53;0.90;;;13.70;72.60;;;;;;4920897;29;20492;-74
2022/03/15 16:45:23;;;;;;;0.80;0.63;;;13.70;72.70;;;;;;4921283;29;20463;-73
2022/03/15 16:47:50;;;;;;;1.40;0.80;;;13.70;72.70;;;;;;4920361;29;20516;-74
2022/03/15 16:50:19;;;;;;;0.90;0.80;;;13.70;72.80;;;;;;4920581;29;20456;-71
2022/03/15 16:52:46;;;;;;;1.40;1.10;;;13.60;72.70;;;;;;4920373;29;20512;-73
2022/03/15 16:55:13;;;;;;;0.93;0.80;;;13.70;73.40;;;;;;4920366;29;20488;-73